Capitol Logistics 318


KPHX
Phoenix Sky Harbor International Airport
Phoenix, Arizona, US
KPDX
Portland International Airport
Portland, Oregon, US

Activity Log

Date Flight Route Aircraft Duration
02/06/2020 CPX318 ZEPER1 SISIE DOVEE BTY KO48I SOERN TMBRS2 B763 3h 00m
03/19/2019 CPX318 ZEPER1 SISIE DOVEE BTY KO48I SOERN TMBRS2 B763 2h 33m
01/28/2019 CPX318 ZEPER1 SISIE DOVEE BTY KO48I SOERN TMBRS2 B763 2h 37m

Route Details

Aircraft Information
Primary: Boeing 767-300BDSF
Backup: Not Available
Route Data
Distance: 878nm
Sched. Duration: 3h 00m
Avg. Duration: 2h 56m (-43m)
Times Flown: 3
Recm'd Route: ZEPER1 SISIE DOVEE BTY KO48I SOERN TMBRS2
Planned Altitude: 36,000ft
Origin Wx: KPHX 032351Z 28008G16KT 10SM SCT090 39/13 A2982 RMK AO2 SLP076 T03940133 10406 20350 56021 $
Dest. Wx: KPDX 032353Z 30009KT 10SM FEW050 BKN250 21/09 A3010 RMK AO2 SLP192 T02110094 10217 20167 58004
Notes:

Financial History
Total Freight: 268,070lbs
Average Load: 89,357lbs/flt
Fuel Used: 92,417lbs
Avg. Fuel Used: 30,806lbs/flt
Fuel Expense: $74,858
Avg. Fuel Expense: $24,953
Avg. Fuel Cost: $0.81/lbs
Total Gross Income: $351,352
Pilot Pay: $287
Total Expenses: $38,102
Total Revenue: $237,216
Average Revenue: $117,117.49